sensor_id;sensor_type;location;lat;lon;timestamp;pressure;altitude;pressure_sealevel;temperature;humidity
72585;BME280;60618;40.084;32.908;2022-07-05T00:01:34;89453.19;;;16.15;61.10
72585;BME280;60618;40.084;32.908;2022-07-05T00:04:01;89467.66;;;16.12;61.64
72585;BME280;60618;40.084;32.908;2022-07-05T00:06:27;89460.94;;;16.00;61.10
72585;BME280;60618;40.084;32.908;2022-07-05T00:08:54;89459.56;;;15.94;62.11
72585;BME280;60618;40.084;32.908;2022-07-05T00:11:21;89459.59;;;15.88;61.93
72585;BME280;60618;40.084;32.908;2022-07-05T00:13:48;89463.81;;;15.83;62.54
72585;BME280;60618;40.084;32.908;2022-07-05T00:16:15;89460.16;;;15.81;62.27
72585;BME280;60618;40.084;32.908;2022-07-05T00:18:42;89463.44;;;15.74;62.40
72585;BME280;60618;40.084;32.908;2022-07-05T00:21:09;89460.97;;;15.76;62.95
72585;BME280;60618;40.084;32.908;2022-07-05T00:23:36;89465.16;;;15.71;62.54
72585;BME280;60618;40.084;32.908;2022-07-05T00:26:03;89464.50;;;15.65;62.52
72585;BME280;60618;40.084;32.908;2022-07-05T00:28:30;89455.25;;;15.60;63.13
72585;BME280;60618;40.084;32.908;2022-07-05T00:30:57;89456.03;;;15.55;62.91
72585;BME280;60618;40.084;32.908;2022-07-05T00:33:24;89464.56;;;15.54;62.94
72585;BME280;60618;40.084;32.908;2022-07-05T00:35:50;89457.22;;;15.54;63.35
72585;BME280;60618;40.084;32.908;2022-07-05T00:38:17;89456.03;;;15.55;62.84
72585;BME280;60618;40.084;32.908;2022-07-05T00:40:44;89458.25;;;15.51;63.37
72585;BME280;60618;40.084;32.908;2022-07-05T00:43:11;89456.56;;;15.48;62.91
72585;BME280;60618;40.084;32.908;2022-07-05T00:45:38;89458.31;;;15.46;63.51
72585;BME280;60618;40.084;32.908;2022-07-05T00:48:05;89458.13;;;15.38;63.65
72585;BME280;60618;40.084;32.908;2022-07-05T00:50:33;89450.09;;;15.38;63.36
72585;BME280;60618;40.084;32.908;2022-07-05T00:53:00;89451.31;;;15.37;63.63
72585;BME280;60618;40.084;32.908;2022-07-05T00:55:27;89448.66;;;15.31;63.38
72585;BME280;60618;40.084;32.908;2022-07-05T00:57:54;89447.53;;;15.21;63.70
72585;BME280;60618;40.084;32.908;2022-07-05T01:00:21;89455.81;;;15.23;64.15
72585;BME280;60618;40.084;32.908;2022-07-05T01:02:48;89443.41;;;15.20;63.71
72585;BME280;60618;40.084;32.908;2022-07-05T01:05:15;89448.78;;;15.20;64.00
72585;BME280;60618;40.084;32.908;2022-07-05T01:07:43;89450.47;;;15.18;63.42
72585;BME280;60618;40.084;32.908;2022-07-05T01:10:10;89447.06;;;15.17;63.25
72585;BME280;60618;40.084;32.908;2022-07-05T01:12:40;89447.59;;;15.16;63.45
72585;BME280;60618;40.084;32.908;2022-07-05T01:15:08;89455.13;;;15.17;63.64
72585;BME280;60618;40.084;32.908;2022-07-05T01:17:36;89449.31;;;15.13;63.74
72585;BME280;60618;40.084;32.908;2022-07-05T01:20:07;89454.19;;;15.15;63.08
72585;BME280;60618;40.084;32.908;2022-07-05T01:22:57;89446.84;;;15.15;63.05
72585;BME280;60618;40.084;32.908;2022-07-05T01:25:26;89446.59;;;15.19;63.54
72585;BME280;60618;40.084;32.908;2022-07-05T01:27:55;89444.91;;;15.16;63.35
72585;BME280;60618;40.084;32.908;2022-07-05T01:30:22;89440.53;;;15.13;63.20
72585;BME280;60618;40.084;32.908;2022-07-05T01:32:49;89441.53;;;15.10;63.37
72585;BME280;60618;40.084;32.908;2022-07-05T01:35:17;89440.53;;;15.13;63.55
72585;BME280;60618;40.084;32.908;2022-07-05T01:37:44;89442.03;;;15.08;63.06
72585;BME280;60618;40.084;32.908;2022-07-05T01:40:11;89441.59;;;15.04;63.44
72585;BME280;60618;40.084;32.908;2022-07-05T01:42:39;89436.47;;;15.00;63.30
72585;BME280;60618;40.084;32.908;2022-07-05T01:45:06;89439.41;;;15.02;63.16
72585;BME280;60618;40.084;32.908;2022-07-05T01:47:41;89442.31;;;15.04;62.93
72585;BME280;60618;40.084;32.908;2022-07-05T01:50:09;89439.22;;;14.95;62.57
72585;BME280;60618;40.084;32.908;2022-07-05T01:52:42;89442.91;;;14.92;62.84
72585;BME280;60618;40.084;32.908;2022-07-05T01:55:10;89453.38;;;14.90;63.46
72585;BME280;60618;40.084;32.908;2022-07-05T01:57:37;89447.53;;;14.91;62.76
72585;BME280;60618;40.084;32.908;2022-07-05T02:00:05;89451.22;;;14.88;62.58
72585;BME280;60618;40.084;32.908;2022-07-05T02:02:32;89455.13;;;14.87;62.96
72585;BME280;60618;40.084;32.908;2022-07-05T02:04:59;89452.22;;;14.85;62.94
72585;BME280;60618;40.084;32.908;2022-07-05T02:07:26;89451.75;;;14.81;63.01
72585;BME280;60618;40.084;32.908;2022-07-05T02:09:53;89447.38;;;14.78;62.84
72585;BME280;60618;40.084;32.908;2022-07-05T02:12:20;89461.81;;;14.75;62.96
72585;BME280;60618;40.084;32.908;2022-07-05T02:14:47;89456.19;;;14.73;63.58
72585;BME280;60618;40.084;32.908;2022-07-05T02:17:13;89452.56;;;14.70;63.23
72585;BME280;60618;40.084;32.908;2022-07-05T02:19:40;89455.72;;;14.74;63.35
72585;BME280;60618;40.084;32.908;2022-07-05T02:22:07;89455.25;;;14.70;63.65
72585;BME280;60618;40.084;32.908;2022-07-05T02:24:34;89463.50;;;14.72;63.44
72585;BME280;60618;40.084;32.908;2022-07-05T02:27:01;89454.06;;;14.66;63.11
72585;BME280;60618;40.084;32.908;2022-07-05T02:29:28;89462.81;;;14.66;63.31
72585;BME280;60618;40.084;32.908;2022-07-05T02:31:55;89466.22;;;14.67;63.51
72585;BME280;60618;40.084;32.908;2022-07-05T02:34:22;89463.34;;;14.59;62.79
72585;BME280;60618;40.084;32.908;2022-07-05T02:36:49;89468.00;;;14.59;63.23
72585;BME280;60618;40.084;32.908;2022-07-05T02:39:15;89469.22;;;14.58;63.22
72585;BME280;60618;40.084;32.908;2022-07-05T02:41:42;89469.22;;;14.58;63.55
72585;BME280;60618;40.084;32.908;2022-07-05T02:44:09;89468.72;;;14.59;63.27
72585;BME280;60618;40.084;32.908;2022-07-05T02:46:36;89466.75;;;14.60;63.39
72585;BME280;60618;40.084;32.908;2022-07-05T02:49:03;89466.22;;;14.67;63.19
72585;BME280;60618;40.084;32.908;2022-07-05T02:51:30;89475.44;;;14.71;63.20
72585;BME280;60618;40.084;32.908;2022-07-05T02:53:57;89471.75;;;14.80;61.86
72585;BME280;60618;40.084;32.908;2022-07-05T02:56:24;89480.00;;;14.82;62.23
72585;BME280;60618;40.084;32.908;2022-07-05T02:58:53;89472.22;;;14.84;62.58
72585;BME280;60618;40.084;32.908;2022-07-05T03:01:20;89482.66;;;14.88;62.01
72585;BME280;60618;40.084;32.908;2022-07-05T03:03:47;89473.44;;;14.83;62.21
72585;BME280;60618;40.084;32.908;2022-07-05T03:06:14;89477.22;;;14.99;61.99
72585;BME280;60618;40.084;32.908;2022-07-05T03:08:41;89479.66;;;15.02;61.53
72585;BME280;60618;40.084;32.908;2022-07-05T03:11:08;89479.34;;;15.12;61.10
72585;BME280;60618;40.084;32.908;2022-07-05T03:13:35;89472.41;;;15.22;60.57
72585;BME280;60618;40.084;32.908;2022-07-05T03:16:02;89471.88;;;15.29;60.13
72585;BME280;60618;40.084;32.908;2022-07-05T03:18:29;89474.00;;;15.36;59.79
72585;BME280;60618;40.084;32.908;2022-07-05T03:20:56;89475.41;;;15.43;59.09
72585;BME280;60618;40.084;32.908;2022-07-05T03:23:23;89474.56;;;15.53;59.11
72585;BME280;60618;40.084;32.908;2022-07-05T03:25:49;89480.19;;;15.55;59.10
72585;BME280;60618;40.084;32.908;2022-07-05T03:28:16;89475.75;;;15.64;58.78
72585;BME280;60618;40.084;32.908;2022-07-05T03:30:43;89477.13;;;15.70;58.95
72585;BME280;60618;40.084;32.908;2022-07-05T03:33:10;89480.19;;;15.80;58.72
72585;BME280;60618;40.084;32.908;2022-07-05T03:35:37;89478.41;;;15.88;58.16
72585;BME280;60618;40.084;32.908;2022-07-05T03:38:04;89473.41;;;15.98;58.14
72585;BME280;60618;40.084;32.908;2022-07-05T03:40:31;89470.47;;;16.01;57.89
72585;BME280;60618;40.084;32.908;2022-07-05T03:42:58;89468.41;;;16.07;57.82
72585;BME280;60618;40.084;32.908;2022-07-05T03:45:25;89472.97;;;16.18;57.50
72585;BME280;60618;40.084;32.908;2022-07-05T03:47:52;89469.41;;;16.29;56.80
72585;BME280;60618;40.084;32.908;2022-07-05T03:50:19;89468.84;;;16.36;56.53
72585;BME280;60618;40.084;32.908;2022-07-05T03:52:46;89474.06;;;16.47;56.24
72585;BME280;60618;40.084;32.908;2022-07-05T03:55:13;89478.88;;;16.54;56.40
72585;BME280;60618;40.084;32.908;2022-07-05T03:57:40;89485.84;;;16.63;56.01
72585;BME280;60618;40.084;32.908;2022-07-05T04:00:07;89471.34;;;16.71;55.39
72585;BME280;60618;40.084;32.908;2022-07-05T04:02:34;89471.38;;;16.85;54.09
72585;BME280;60618;40.084;32.908;2022-07-05T04:05:01;89473.69;;;16.94;53.74
72585;BME280;60618;40.084;32.908;2022-07-05T04:07:28;89483.16;;;17.00;53.16
72585;BME280;60618;40.084;32.908;2022-07-05T04:09:55;89477.66;;;17.06;53.57
72585;BME280;60618;40.084;32.908;2022-07-05T04:12:22;89474.59;;;17.15;53.24
72585;BME280;60618;40.084;32.908;2022-07-05T04:14:49;89474.44;;;17.26;52.29
72585;BME280;60618;40.084;32.908;2022-07-05T04:17:16;89469.91;;;17.35;52.16
72585;BME280;60618;40.084;32.908;2022-07-05T04:19:43;89483.28;;;17.40;51.90
72585;BME280;60618;40.084;32.908;2022-07-05T04:22:11;89478.00;;;17.48;51.69
72585;BME280;60618;40.084;32.908;2022-07-05T04:24:38;89480.31;;;17.57;51.50
72585;BME280;60618;40.084;32.908;2022-07-05T04:27:05;89483.22;;;17.59;51.53
72585;BME280;60618;40.084;32.908;2022-07-05T04:29:32;89487.69;;;17.70;51.74
72585;BME280;60618;40.084;32.908;2022-07-05T04:31:58;89483.88;;;17.78;51.37
72585;BME280;60618;40.084;32.908;2022-07-05T04:34:25;89482.56;;;17.85;51.37
72585;BME280;60618;40.084;32.908;2022-07-05T04:36:52;89480.16;;;17.95;51.19
72585;BME280;60618;40.084;32.908;2022-07-05T04:39:19;89485.34;;;18.06;50.99
72585;BME280;60618;40.084;32.908;2022-07-05T04:41:46;89484.44;;;18.17;50.89
72585;BME280;60618;40.084;32.908;2022-07-05T04:44:13;89484.53;;;18.24;50.31
72585;BME280;60618;40.084;32.908;2022-07-05T04:46:40;89480.69;;;18.33;50.22
72585;BME280;60618;40.084;32.908;2022-07-05T04:49:06;89485.78;;;18.36;50.25
72585;BME280;60618;40.084;32.908;2022-07-05T04:51:33;89489.38;;;18.39;49.94
72585;BME280;60618;40.084;32.908;2022-07-05T04:54:00;89482.94;;;18.42;49.72
72585;BME280;60618;40.084;32.908;2022-07-05T04:56:30;89485.63;;;18.55;49.20
72585;BME280;60618;40.084;32.908;2022-07-05T04:58:57;89488.22;;;18.61;49.53
72585;BME280;60618;40.084;32.908;2022-07-05T05:01:24;89488.44;;;18.63;48.06
72585;BME280;60618;40.084;32.908;2022-07-05T05:03:51;89498.91;;;18.66;49.78
72585;BME280;60618;40.084;32.908;2022-07-05T05:06:18;89495.91;;;18.70;49.87
72585;BME280;60618;40.084;32.908;2022-07-05T05:08:45;89497.47;;;18.65;50.28
72585;BME280;60618;40.084;32.908;2022-07-05T05:11:11;89494.44;;;18.69;50.74
72585;BME280;60618;40.084;32.908;2022-07-05T05:13:38;89497.47;;;18.79;50.62
72585;BME280;60618;40.084;32.908;2022-07-05T05:16:05;89492.47;;;18.83;50.86
72585;BME280;60618;40.084;32.908;2022-07-05T05:18:32;89497.84;;;18.83;50.61
72585;BME280;60618;40.084;32.908;2022-07-05T05:20:59;89495.63;;;18.94;50.61
72585;BME280;60618;40.084;32.908;2022-07-05T05:23:26;89493.50;;;19.14;50.84
72585;BME280;60618;40.084;32.908;2022-07-05T05:25:53;89507.41;;;19.18;50.12
72585;BME280;60618;40.084;32.908;2022-07-05T05:28:20;89486.88;;;19.36;50.64
72585;BME280;60618;40.084;32.908;2022-07-05T05:30:46;89499.47;;;19.33;50.53
72585;BME280;60618;40.084;32.908;2022-07-05T05:33:13;89492.84;;;19.21;50.81
72585;BME280;60618;40.084;32.908;2022-07-05T05:35:40;89501.91;;;19.23;50.76
72585;BME280;60618;40.084;32.908;2022-07-05T05:38:07;89502.53;;;19.16;50.64
72585;BME280;60618;40.084;32.908;2022-07-05T05:40:34;89503.91;;;19.10;51.14
72585;BME280;60618;40.084;32.908;2022-07-05T05:43:01;89503.25;;;19.17;51.19
72585;BME280;60618;40.084;32.908;2022-07-05T05:45:28;89496.03;;;19.33;50.98
72585;BME280;60618;40.084;32.908;2022-07-05T05:47:56;89497.28;;;19.52;50.43
72585;BME280;60618;40.084;32.908;2022-07-05T05:50:29;89490.28;;;19.70;50.00
72585;BME280;60618;40.084;32.908;2022-07-05T05:52:56;89491.69;;;19.92;49.24
72585;BME280;60618;40.084;32.908;2022-07-05T05:55:24;89493.63;;;20.12;48.73
72585;BME280;60618;40.084;32.908;2022-07-05T05:57:52;89484.66;;;20.18;48.21
72585;BME280;60618;40.084;32.908;2022-07-05T06:00:20;89489.19;;;20.23;46.86
72585;BME280;60618;40.084;32.908;2022-07-05T06:02:49;89485.78;;;20.30;47.54
72585;BME280;60618;40.084;32.908;2022-07-05T06:05:17;89480.50;;;20.45;47.28
72585;BME280;60618;40.084;32.908;2022-07-05T06:07:48;89480.97;;;20.36;46.05
72585;BME280;60618;40.084;32.908;2022-07-05T06:10:21;89476.03;;;20.27;45.00
72585;BME280;60618;40.084;32.908;2022-07-05T06:12:50;89477.75;;;20.09;45.03
72585;BME280;60618;40.084;32.908;2022-07-05T06:15:17;89478.41;;;20.02;45.31
72585;BME280;60618;40.084;32.908;2022-07-05T06:17:45;89470.06;;;19.92;45.91
72585;BME280;60618;40.084;32.908;2022-07-05T06:20:15;89466.94;;;20.09;46.10
72585;BME280;60618;40.084;32.908;2022-07-05T06:22:42;89464.13;;;20.22;46.52
72585;BME280;60618;40.084;32.908;2022-07-05T06:25:10;89467.84;;;20.40;46.52
72585;BME280;60618;40.084;32.908;2022-07-05T06:27:53;89472.50;;;20.39;43.61
72585;BME280;60618;40.084;32.908;2022-07-05T06:30:22;89466.84;;;20.30;43.56
72585;BME280;60618;40.084;32.908;2022-07-05T06:32:49;89468.50;;;20.33;44.25
72585;BME280;60618;40.084;32.908;2022-07-05T06:35:17;89469.78;;;20.32;42.93
72585;BME280;60618;40.084;32.908;2022-07-05T06:40:22;89467.69;;;20.17;42.95
72585;BME280;60618;40.084;32.908;2022-07-05T06:42:50;89467.66;;;20.09;42.86
72585;BME280;60618;40.084;32.908;2022-07-05T06:45:17;89478.13;;;20.13;41.99
72585;BME280;60618;40.084;32.908;2022-07-05T06:47:45;89469.16;;;20.18;42.12
72585;BME280;60618;40.084;32.908;2022-07-05T06:50:13;89470.16;;;20.36;41.57
72585;BME280;60618;40.084;32.908;2022-07-05T06:52:40;89463.16;;;20.77;40.17
72585;BME280;60618;40.084;32.908;2022-07-05T06:55:07;89460.16;;;21.03;39.38
72585;BME280;60618;40.084;32.908;2022-07-05T06:57:34;89464.69;;;21.08;38.65
72585;BME280;60618;40.084;32.908;2022-07-05T07:00:03;89461.69;;;21.35;38.14
72585;BME280;60618;40.084;32.908;2022-07-05T07:02:30;89459.75;;;21.58;37.18
72585;BME280;60618;40.084;32.908;2022-07-05T07:04:57;89460.81;;;21.70;36.66
72585;BME280;60618;40.084;32.908;2022-07-05T07:07:42;89454.13;;;21.79;36.43
72585;BME280;60618;40.084;32.908;2022-07-05T07:10:09;89456.13;;;21.86;36.63
72585;BME280;60618;40.084;32.908;2022-07-05T07:12:36;89458.66;;;21.69;34.88
72585;BME280;60618;40.084;32.908;2022-07-05T07:15:03;89447.09;;;21.61;35.63
72585;BME280;60618;40.084;32.908;2022-07-05T07:17:30;89459.72;;;21.50;35.07
72585;BME280;60618;40.084;32.908;2022-07-05T07:19:57;89446.69;;;21.34;35.56
72585;BME280;60618;40.084;32.908;2022-07-05T07:22:24;89459.56;;;21.48;36.54
72585;BME280;60618;40.084;32.908;2022-07-05T07:24:50;89459.19;;;21.75;36.41
72585;BME280;60618;40.084;32.908;2022-07-05T07:27:17;89451.97;;;21.77;36.02
72585;BME280;60618;40.084;32.908;2022-07-05T07:29:44;89456.28;;;21.65;35.83
72585;BME280;60618;40.084;32.908;2022-07-05T07:32:12;89449.25;;;21.54;34.54
72585;BME280;60618;40.084;32.908;2022-07-05T07:34:39;89452.13;;;21.64;36.39
72585;BME280;60618;40.084;32.908;2022-07-05T07:37:07;89451.03;;;21.82;35.81
72585;BME280;60618;40.084;32.908;2022-07-05T07:39:34;89460.06;;;22.00;35.70
72585;BME280;60618;40.084;32.908;2022-07-05T07:42:01;89462.28;;;21.94;36.40
72585;BME280;60618;40.084;32.908;2022-07-05T07:44:28;89468.75;;;21.99;35.13
72585;BME280;60618;40.084;32.908;2022-07-05T07:46:54;89465.13;;;22.19;36.50
72585;BME280;60618;40.084;32.908;2022-07-05T07:49:22;89468.59;;;22.20;35.99
72585;BME280;60618;40.084;32.908;2022-07-05T07:51:49;89470.72;;;22.36;35.72
72585;BME280;60618;40.084;32.908;2022-07-05T07:54:17;89477.06;;;22.31;34.81
72585;BME280;60618;40.084;32.908;2022-07-05T07:56:44;89473.81;;;22.18;34.72
72585;BME280;60618;40.084;32.908;2022-07-05T07:59:11;89473.09;;;22.09;35.03
72585;BME280;60618;40.084;32.908;2022-07-05T08:01:38;89472.91;;;21.92;36.25
72585;BME280;60618;40.084;32.908;2022-07-05T08:04:11;89468.75;;;21.83;36.67
72585;BME280;60618;40.084;32.908;2022-07-05T08:06:38;89463.88;;;21.74;35.60
72585;BME280;60618;40.084;32.908;2022-07-05T08:09:05;89462.09;;;21.69;36.06
72585;BME280;60618;40.084;32.908;2022-07-05T08:11:40;89472.94;;;21.69;35.58
72585;BME280;60618;40.084;32.908;2022-07-05T08:14:07;89472.94;;;21.69;35.63
72585;BME280;60618;40.084;32.908;2022-07-05T08:16:34;89462.09;;;21.85;36.25
72585;BME280;60618;40.084;32.908;2022-07-05T08:19:01;89464.59;;;21.82;33.94
72585;BME280;60618;40.084;32.908;2022-07-05T08:21:28;89452.69;;;21.86;34.57
72585;BME280;60618;40.084;32.908;2022-07-05T08:23:55;89457.56;;;21.87;34.51
72585;BME280;60618;40.084;32.908;2022-07-05T08:26:22;89454.13;;;22.02;35.10
72585;BME280;60618;40.084;32.908;2022-07-05T08:28:49;89461.69;;;22.26;35.25
72585;BME280;60618;40.084;32.908;2022-07-05T08:34:15;89458.47;;;22.20;33.38
72585;BME280;60618;40.084;32.908;2022-07-05T08:36:43;89454.28;;;22.19;34.32
72585;BME280;60618;40.084;32.908;2022-07-05T08:39:10;89463.13;;;22.27;33.84
72585;BME280;60618;40.084;32.908;2022-07-05T08:41:40;89455.19;;;22.29;32.01
72585;BME280;60618;40.084;32.908;2022-07-05T08:44:08;89445.72;;;22.46;33.35
72585;BME280;60618;40.084;32.908;2022-07-05T08:46:38;89443.88;;;22.63;34.04
72585;BME280;60618;40.084;32.908;2022-07-05T08:49:08;89453.81;;;22.69;32.08
72585;BME280;60618;40.084;32.908;2022-07-05T08:51:39;89442.03;;;22.74;32.22
72585;BME280;60618;40.084;32.908;2022-07-05T08:54:09;89452.84;;;22.81;32.20
72585;BME280;60618;40.084;32.908;2022-07-05T08:56:36;89442.13;;;22.99;31.96
72585;BME280;60618;40.084;32.908;2022-07-05T08:59:23;89436.63;;;23.14;33.10
72585;BME280;60618;40.084;32.908;2022-07-05T09:01:50;89440.72;;;23.22;32.32
72585;BME280;60618;40.084;32.908;2022-07-05T09:04:19;89443.28;;;23.20;30.25
72585;BME280;60618;40.084;32.908;2022-07-05T09:06:47;89438.53;;;23.29;32.04
72585;BME280;60618;40.084;32.908;2022-07-05T09:09:17;89439.25;;;23.29;31.33
72585;BME280;60618;40.084;32.908;2022-07-05T09:11:45;89446.13;;;23.30;31.68
72585;BME280;60618;40.084;32.908;2022-07-05T09:14:32;89444.75;;;23.46;31.35
72585;BME280;60618;40.084;32.908;2022-07-05T09:16:59;89434.72;;;23.57;31.57
72585;BME280;60618;40.084;32.908;2022-07-05T09:19:26;89438.41;;;23.44;30.12
72585;BME280;60618;40.084;32.908;2022-07-05T09:22:05;89437.38;;;23.39;31.05
72585;BME280;60618;40.084;32.908;2022-07-05T09:24:42;89438.34;;;23.59;29.88
72585;BME280;60618;40.084;32.908;2022-07-05T09:27:10;89442.28;;;23.66;29.89
72585;BME280;60618;40.084;32.908;2022-07-05T09:29:37;89415.44;;;23.70;30.12
72585;BME280;60618;40.084;32.908;2022-07-05T09:32:23;89423.13;;;23.81;30.32
72585;BME280;60618;40.084;32.908;2022-07-05T09:34:50;89423.88;;;23.99;29.79
72585;BME280;60618;40.084;32.908;2022-07-05T09:37:17;89423.25;;;24.08;28.98
72585;BME280;60618;40.084;32.908;2022-07-05T09:39:43;89420.16;;;24.12;28.95
72585;BME280;60618;40.084;32.908;2022-07-05T09:42:12;89426.88;;;24.11;29.55
72585;BME280;60618;40.084;32.908;2022-07-05T09:44:47;89415.44;;;24.12;28.56
72585;BME280;60618;40.084;32.908;2022-07-05T09:47:16;89419.13;;;24.24;28.56
72585;BME280;60618;40.084;32.908;2022-07-05T09:49:46;89411.25;;;24.36;28.08
72585;BME280;60618;40.084;32.908;2022-07-05T09:52:35;89415.41;;;24.37;27.96
72585;BME280;60618;40.084;32.908;2022-07-05T09:55:16;89422.63;;;24.17;26.73
72585;BME280;60618;40.084;32.908;2022-07-05T09:57:46;89420.16;;;24.12;27.65
72585;BME280;60618;40.084;32.908;2022-07-05T10:00:15;89404.97;;;24.09;28.11
72585;BME280;60618;40.084;32.908;2022-07-05T10:02:54;89412.38;;;24.25;27.89
72585;BME280;60618;40.084;32.908;2022-07-05T10:05:26;89404.22;;;24.25;28.11
72585;BME280;60618;40.084;32.908;2022-07-05T10:07:58;89399.69;;;24.28;28.57
72585;BME280;60618;40.084;32.908;2022-07-05T10:10:29;89404.97;;;24.09;27.98
72585;BME280;60618;40.084;32.908;2022-07-05T10:13:00;89402.78;;;24.07;29.12
72585;BME280;60618;40.084;32.908;2022-07-05T10:15:30;89398.53;;;24.14;28.04
72585;BME280;60618;40.084;32.908;2022-07-05T10:18:20;89392.94;;;24.12;27.60
72585;BME280;60618;40.084;32.908;2022-07-05T10:20:49;89388.78;;;24.11;28.22
72585;BME280;60618;40.084;32.908;2022-07-05T10:23:17;89386.31;;;24.22;28.88
72585;BME280;60618;40.084;32.908;2022-07-05T10:25:46;89387.03;;;24.23;29.12
72585;BME280;60618;40.084;32.908;2022-07-05T10:28:14;89388.31;;;24.22;28.04
72585;BME280;60618;40.084;32.908;2022-07-05T10:30:44;89377.25;;;24.20;28.33
72585;BME280;60618;40.084;32.908;2022-07-05T10:33:11;89366.06;;;24.33;28.01
72585;BME280;60618;40.084;32.908;2022-07-05T10:35:42;89385.47;;;24.37;26.44
72585;BME280;60618;40.084;32.908;2022-07-05T10:38:10;89366.78;;;24.33;27.12
72585;BME280;60618;40.084;32.908;2022-07-05T10:40:38;89375.66;;;24.34;26.71
72585;BME280;60618;40.084;32.908;2022-07-05T10:43:07;89370.56;;;24.38;27.59
72585;BME280;60618;40.084;32.908;2022-07-05T10:45:37;89366.38;;;24.54;27.39
72585;BME280;60618;40.084;32.908;2022-07-05T10:48:18;89372.94;;;24.51;27.09
72585;BME280;60618;40.084;32.908;2022-07-05T10:50:58;89364.97;;;24.36;27.10
72585;BME280;60618;40.084;32.908;2022-07-05T10:58:36;89365.50;;;24.34;28.12
72585;BME280;60618;40.084;32.908;2022-07-05T11:03:44;89366.63;;;24.49;29.00
72585;BME280;60618;40.084;32.908;2022-07-05T11:06:22;89366.38;;;24.54;27.89
72585;BME280;60618;40.084;32.908;2022-07-05T11:11:33;89366.38;;;24.54;27.23
72585;BME280;60618;40.084;32.908;2022-07-05T11:16:47;89366.13;;;24.60;27.64
72585;BME280;60618;40.084;32.908;2022-07-05T11:19:17;89361.88;;;24.67;27.99
72585;BME280;60618;40.084;32.908;2022-07-05T11:22:02;89356.34;;;24.74;27.59
72585;BME280;60618;40.084;32.908;2022-07-05T11:24:36;89353.09;;;24.85;28.24
72585;BME280;60618;40.084;32.908;2022-07-05T11:27:10;89352.13;;;24.90;27.08
72585;BME280;60618;40.084;32.908;2022-07-05T11:29:45;89356.88;;;24.90;27.49
72585;BME280;60618;40.084;32.908;2022-07-05T11:32:14;89355.81;;;24.85;27.34
72585;BME280;60618;40.084;32.908;2022-07-05T11:34:43;89357.34;;;24.79;26.10
72585;BME280;60618;40.084;32.908;2022-07-05T11:42:33;89345.25;;;24.89;24.00
72585;BME280;60618;40.084;32.908;2022-07-05T11:45:00;89350.06;;;24.81;24.21
72585;BME280;60618;40.084;32.908;2022-07-05T11:47:34;89352.22;;;24.83;24.93
72585;BME280;60618;40.084;32.908;2022-07-05T11:50:09;89363.84;;;24.83;25.22
72585;BME280;60618;40.084;32.908;2022-07-05T11:52:38;89344.78;;;24.83;25.98
72585;BME280;60618;40.084;32.908;2022-07-05T11:55:07;89353.97;;;24.88;26.78
72585;BME280;60618;40.084;32.908;2022-07-05T11:57:35;89336.03;;;24.85;25.13
72585;BME280;60618;40.084;32.908;2022-07-05T12:00:05;89341.38;;;24.92;25.76
72585;BME280;60618;40.084;32.908;2022-07-05T12:02:42;89343.84;;;24.98;25.75
72585;BME280;60618;40.084;32.908;2022-07-05T12:05:10;89346.72;;;25.00;25.75
72585;BME280;60618;40.084;32.908;2022-07-05T12:07:37;89347.44;;;25.01;24.55
72585;BME280;60618;40.084;32.908;2022-07-05T12:10:04;89344.00;;;25.00;24.66
72585;BME280;60618;40.084;32.908;2022-07-05T12:12:31;89341.47;;;25.02;23.91
72585;BME280;60618;40.084;32.908;2022-07-05T12:14:59;89341.34;;;25.10;25.13
72585;BME280;60618;40.084;32.908;2022-07-05T12:17:26;89337.38;;;25.21;24.70
72585;BME280;60618;40.084;32.908;2022-07-05T12:19:54;89346.03;;;25.27;25.41
72585;BME280;60618;40.084;32.908;2022-07-05T12:22:32;89342.75;;;25.38;24.86
72585;BME280;60618;40.084;32.908;2022-07-05T12:25:00;89339.88;;;25.36;24.67
72585;BME280;60618;40.084;32.908;2022-07-05T12:27:29;89333.16;;;25.37;25.27
72585;BME280;60618;40.084;32.908;2022-07-05T12:29:57;89332.16;;;25.42;24.95
72585;BME280;60618;40.084;32.908;2022-07-05T12:32:25;89333.75;;;25.45;26.04
72585;BME280;60618;40.084;32.908;2022-07-05T12:34:52;89328.13;;;25.43;25.16
72585;BME280;60618;40.084;32.908;2022-07-05T12:37:23;89325.41;;;25.43;24.78
72585;BME280;60618;40.084;32.908;2022-07-05T12:40:09;89314.19;;;25.39;24.78
72585;BME280;60618;40.084;32.908;2022-07-05T12:42:38;89311.19;;;25.35;24.84
72585;BME280;60618;40.084;32.908;2022-07-05T12:45:13;89308.06;;;25.48;25.62
72585;BME280;60618;40.084;32.908;2022-07-05T12:47:51;89303.34;;;25.68;25.83
72585;BME280;60618;40.084;32.908;2022-07-05T12:50:20;89299.91;;;25.67;24.41
72585;BME280;60618;40.084;32.908;2022-07-05T12:53:04;89305.84;;;25.73;24.88
72585;BME280;60618;40.084;32.908;2022-07-05T12:55:35;89306.72;;;25.86;25.81
72585;BME280;60618;40.084;32.908;2022-07-05T12:58:03;89298.69;;;25.88;26.10
72585;BME280;60618;40.084;32.908;2022-07-05T13:00:30;89301.38;;;25.78;24.42
72585;BME280;60618;40.084;32.908;2022-07-05T13:02:57;89304.69;;;25.77;24.52
72585;BME280;60618;40.084;32.908;2022-07-05T13:05:26;89301.06;;;25.64;24.48
72585;BME280;60618;40.084;32.908;2022-07-05T13:07:53;89301.06;;;25.64;24.61
72585;BME280;60618;40.084;32.908;2022-07-05T13:10:26;89292.88;;;25.64;25.39
72585;BME280;60618;40.084;32.908;2022-07-05T13:12:53;89298.34;;;25.64;25.64
72585;BME280;60618;40.084;32.908;2022-07-05T13:15:20;89293.72;;;25.57;25.34
72585;BME280;60618;40.084;32.908;2022-07-05T13:17:47;89288.69;;;25.54;25.63
72585;BME280;60618;40.084;32.908;2022-07-05T13:20:16;89289.41;;;25.54;26.55
72585;BME280;60618;40.084;32.908;2022-07-05T13:22:44;89279.34;;;25.47;25.27